KFCM/FCM METAR and TAF weather

Enter ICAO airport designator
Station Type Date Time Source
KFCM METAR 2019/02/16 16:53 UTC NOAA

KFCM 161653Z 00000KT 9SM OVC120 M14/M17 A3013 RMK AO2 SLP227 T11391167


Station Type Date Time Source
KFCM Decoded METAR 2019/02/16 16:53 UTC NOAA

Minneapolis, Flying Cloud Airport, MN, United States (KFCM) 44-49-56N 093-28-13W 280M
Feb 16, 2019 - 11:53 AM EST / 2019.02.16 1653 UTC
Wind: Calm:0
Visibility: 9 mile(s):0
Sky conditions: overcast
Temperature: 7.0 F (-13.9 C)
Dew Point: 1.9 F (-16.7 C)
Relative Humidity: 79%
Pressure (altimeter): 30.13 in. Hg (1020 hPa)
ob: KFCM 161653Z 00000KT 9SM OVC120 M14/M17 A3013 RMK AO2 SLP227 T11391167
cycle: 17

Station Type Date Time Source
KFCM TAF 2018/02/05 20:59 UTC NOAA

TAF
AMD KFCM 051959Z 0520/0618 27007KT 6SM -SHSN BKN020 OVC050
TEMPO 0520/0522 SCT020 BKN050
FM052200 27007KT P6SM FEW020 BKN100
FM060100 31007KT P6SM FEW200
FM061000 VRB03KT P6SM FEW250
AMD NOT SKED


Example: see airport list